Chaudfontaine, Belgium
Current Conditions -  °F | °C
As of 9:20 PM on Monday 24 Nov 2014 (Local Time) from EBLG Reporting Station
Clear Clear  
Wind Chill: 36°   Ceiling: Unl
Heat Index: 41°   Visibility: 6mi
Dew Point: 36°   Wind: 7mph
Humidity: 81%   Direction: 90°E
Pressure: 30.33"   Gusts: NA
Location:  50.58°N, 5.63°E
Report Text: EBLG 242020Z 09006KT CAVOK 05/02 Q1027 NOSIG
Loading
Personal Weather Stations






























Interactive Weather Map New forecast layout! Learn more

10-Day Weather Forecast

Advertisements
Track Severe Weather on mobile